sensor_id;sensor_type;location;lat;lon;timestamp;temperature;humidity
53264;DHT22;39153;52.680;6.172;2023-09-07T00:01:55;22.90;99.90
53264;DHT22;39153;52.680;6.172;2023-09-07T00:04:21;22.90;99.90
53264;DHT22;39153;52.680;6.172;2023-09-07T00:06:49;22.80;99.90
53264;DHT22;39153;52.680;6.172;2023-09-07T00:09:16;22.80;99.90
53264;DHT22;39153;52.680;6.172;2023-09-07T00:11:44;22.70;99.90
53264;DHT22;39153;52.680;6.172;2023-09-07T00:14:10;22.70;99.90
53264;DHT22;39153;52.680;6.172;2023-09-07T00:16:36;22.70;99.90
53264;DHT22;39153;52.680;6.172;2023-09-07T00:19:04;22.60;99.90
53264;DHT22;39153;52.680;6.172;2023-09-07T00:21:30;22.60;99.90
53264;DHT22;39153;52.680;6.172;2023-09-07T00:23:56;22.60;99.90
53264;DHT22;39153;52.680;6.172;2023-09-07T00:26:21;22.50;99.90
53264;DHT22;39153;52.680;6.172;2023-09-07T00:28:47;22.50;99.90
53264;DHT22;39153;52.680;6.172;2023-09-07T00:31:13;22.50;99.90
53264;DHT22;39153;52.680;6.172;2023-09-07T00:33:39;22.40;99.90
53264;DHT22;39153;52.680;6.172;2023-09-07T00:36:05;22.40;99.90
53264;DHT22;39153;52.680;6.172;2023-09-07T00:38:31;22.30;99.90
53264;DHT22;39153;52.680;6.172;2023-09-07T00:40:56;22.30;99.90
53264;DHT22;39153;52.680;6.172;2023-09-07T00:43:22;22.30;99.90
53264;DHT22;39153;52.680;6.172;2023-09-07T00:45:48;22.30;99.90
53264;DHT22;39153;52.680;6.172;2023-09-07T00:48:15;22.20;99.90
53264;DHT22;39153;52.680;6.172;2023-09-07T00:50:42;22.20;99.90
53264;DHT22;39153;52.680;6.172;2023-09-07T00:53:10;22.10;99.90
53264;DHT22;39153;52.680;6.172;2023-09-07T00:55:36;22.10;99.90
53264;DHT22;39153;52.680;6.172;2023-09-07T00:58:03;22.10;99.90
53264;DHT22;39153;52.680;6.172;2023-09-07T01:00:30;22.00;99.90
53264;DHT22;39153;52.680;6.172;2023-09-07T01:02:56;22.00;99.90
53264;DHT22;39153;52.680;6.172;2023-09-07T01:05:30;21.90;99.90
53264;DHT22;39153;52.680;6.172;2023-09-07T01:08:03;22.00;99.90
53264;DHT22;39153;52.680;6.172;2023-09-07T01:10:32;21.90;99.90
53264;DHT22;39153;52.680;6.172;2023-09-07T01:12:57;21.80;99.90
53264;DHT22;39153;52.680;6.172;2023-09-07T01:15:23;21.80;99.90
53264;DHT22;39153;52.680;6.172;2023-09-07T01:17:49;21.80;99.90
53264;DHT22;39153;52.680;6.172;2023-09-07T01:20:16;21.70;99.90
53264;DHT22;39153;52.680;6.172;2023-09-07T01:22:43;21.70;99.90
53264;DHT22;39153;52.680;6.172;2023-09-07T01:25:09;21.60;99.90
53264;DHT22;39153;52.680;6.172;2023-09-07T01:27:35;21.60;99.90
53264;DHT22;39153;52.680;6.172;2023-09-07T01:30:01;21.50;99.90
53264;DHT22;39153;52.680;6.172;2023-09-07T01:32:28;21.50;99.90
53264;DHT22;39153;52.680;6.172;2023-09-07T01:34:57;21.50;99.90
53264;DHT22;39153;52.680;6.172;2023-09-07T01:37:23;21.50;99.90
53264;DHT22;39153;52.680;6.172;2023-09-07T01:39:49;21.40;99.90
53264;DHT22;39153;52.680;6.172;2023-09-07T01:42:15;21.40;99.90
53264;DHT22;39153;52.680;6.172;2023-09-07T01:44:41;21.30;99.90
53264;DHT22;39153;52.680;6.172;2023-09-07T01:47:08;21.30;99.90
53264;DHT22;39153;52.680;6.172;2023-09-07T01:49:34;21.20;99.90
53264;DHT22;39153;52.680;6.172;2023-09-07T01:52:00;21.20;99.90
53264;DHT22;39153;52.680;6.172;2023-09-07T01:54:25;21.20;99.90
53264;DHT22;39153;52.680;6.172;2023-09-07T01:56:51;21.20;99.90
53264;DHT22;39153;52.680;6.172;2023-09-07T01:59:17;21.20;99.90
53264;DHT22;39153;52.680;6.172;2023-09-07T02:01:42;21.10;99.90
53264;DHT22;39153;52.680;6.172;2023-09-07T02:04:08;21.10;99.90
53264;DHT22;39153;52.680;6.172;2023-09-07T02:06:34;21.10;99.90
53264;DHT22;39153;52.680;6.172;2023-09-07T02:09:00;21.10;99.90
53264;DHT22;39153;52.680;6.172;2023-09-07T02:11:26;21.10;99.90
53264;DHT22;39153;52.680;6.172;2023-09-07T02:13:51;21.00;99.90
53264;DHT22;39153;52.680;6.172;2023-09-07T02:16:17;20.90;99.90
53264;DHT22;39153;52.680;6.172;2023-09-07T02:18:44;20.90;99.90
53264;DHT22;39153;52.680;6.172;2023-09-07T02:21:11;20.90;99.90
53264;DHT22;39153;52.680;6.172;2023-09-07T02:23:37;20.80;99.90
53264;DHT22;39153;52.680;6.172;2023-09-07T02:26:03;20.80;99.90
53264;DHT22;39153;52.680;6.172;2023-09-07T02:28:29;20.80;99.90
53264;DHT22;39153;52.680;6.172;2023-09-07T02:31:01;20.80;99.90
53264;DHT22;39153;52.680;6.172;2023-09-07T02:33:27;20.70;99.90
53264;DHT22;39153;52.680;6.172;2023-09-07T02:35:53;20.70;99.90
53264;DHT22;39153;52.680;6.172;2023-09-07T02:38:19;20.60;99.90
53264;DHT22;39153;52.680;6.172;2023-09-07T02:40:45;20.60;99.90
53264;DHT22;39153;52.680;6.172;2023-09-07T02:43:11;20.60;99.90
53264;DHT22;39153;52.680;6.172;2023-09-07T02:45:38;20.60;99.90
53264;DHT22;39153;52.680;6.172;2023-09-07T02:48:04;20.50;99.90
53264;DHT22;39153;52.680;6.172;2023-09-07T02:50:32;20.50;99.90
53264;DHT22;39153;52.680;6.172;2023-09-07T02:52:59;20.50;99.90
53264;DHT22;39153;52.680;6.172;2023-09-07T02:55:26;20.50;99.90
53264;DHT22;39153;52.680;6.172;2023-09-07T02:57:52;20.40;99.90
53264;DHT22;39153;52.680;6.172;2023-09-07T03:00:18;20.50;99.90
53264;DHT22;39153;52.680;6.172;2023-09-07T03:02:44;20.40;99.90
53264;DHT22;39153;52.680;6.172;2023-09-07T03:05:10;20.40;99.90
53264;DHT22;39153;52.680;6.172;2023-09-07T03:07:35;20.30;99.90
53264;DHT22;39153;52.680;6.172;2023-09-07T03:10:01;20.30;99.90
53264;DHT22;39153;52.680;6.172;2023-09-07T03:12:27;20.30;99.90
53264;DHT22;39153;52.680;6.172;2023-09-07T03:14:53;20.30;99.90
53264;DHT22;39153;52.680;6.172;2023-09-07T03:17:19;20.20;99.90
53264;DHT22;39153;52.680;6.172;2023-09-07T03:19:46;20.20;99.90
53264;DHT22;39153;52.680;6.172;2023-09-07T03:22:13;20.20;99.90
53264;DHT22;39153;52.680;6.172;2023-09-07T03:24:39;20.20;99.90
53264;DHT22;39153;52.680;6.172;2023-09-07T03:27:04;20.20;99.90
53264;DHT22;39153;52.680;6.172;2023-09-07T03:29:31;20.10;99.90
53264;DHT22;39153;52.680;6.172;2023-09-07T03:31:59;20.10;99.90
53264;DHT22;39153;52.680;6.172;2023-09-07T03:34:25;20.10;99.90
53264;DHT22;39153;52.680;6.172;2023-09-07T03:36:51;20.00;99.90
53264;DHT22;39153;52.680;6.172;2023-09-07T03:39:17;20.00;99.90
53264;DHT22;39153;52.680;6.172;2023-09-07T03:41:44;20.00;99.90
53264;DHT22;39153;52.680;6.172;2023-09-07T03:44:10;19.90;99.90
53264;DHT22;39153;52.680;6.172;2023-09-07T03:46:36;19.90;99.90
53264;DHT22;39153;52.680;6.172;2023-09-07T03:49:02;19.90;99.90
53264;DHT22;39153;52.680;6.172;2023-09-07T03:51:28;19.80;99.90
53264;DHT22;39153;52.680;6.172;2023-09-07T03:53:53;19.90;99.90
53264;DHT22;39153;52.680;6.172;2023-09-07T03:56:19;19.80;99.90
53264;DHT22;39153;52.680;6.172;2023-09-07T03:58:45;19.80;99.90
53264;DHT22;39153;52.680;6.172;2023-09-07T04:01:13;19.70;99.90
53264;DHT22;39153;52.680;6.172;2023-09-07T04:03:39;19.70;99.90
53264;DHT22;39153;52.680;6.172;2023-09-07T04:06:06;19.70;99.90
53264;DHT22;39153;52.680;6.172;2023-09-07T04:08:32;19.60;99.90
53264;DHT22;39153;52.680;6.172;2023-09-07T04:10:58;19.60;99.90
53264;DHT22;39153;52.680;6.172;2023-09-07T04:13:23;19.60;99.90
53264;DHT22;39153;52.680;6.172;2023-09-07T04:15:49;19.60;99.90
53264;DHT22;39153;52.680;6.172;2023-09-07T04:18:15;19.50;99.90
53264;DHT22;39153;52.680;6.172;2023-09-07T04:20:43;19.50;99.90
53264;DHT22;39153;52.680;6.172;2023-09-07T04:23:09;19.50;99.90
53264;DHT22;39153;52.680;6.172;2023-09-07T04:25:34;19.40;99.90
53264;DHT22;39153;52.680;6.172;2023-09-07T04:28:00;19.40;99.90
53264;DHT22;39153;52.680;6.172;2023-09-07T04:30:26;19.40;99.90
53264;DHT22;39153;52.680;6.172;2023-09-07T04:32:52;19.40;99.90
53264;DHT22;39153;52.680;6.172;2023-09-07T04:35:18;19.40;99.90
53264;DHT22;39153;52.680;6.172;2023-09-07T04:37:44;19.30;99.90
53264;DHT22;39153;52.680;6.172;2023-09-07T04:40:10;19.30;99.90
53264;DHT22;39153;52.680;6.172;2023-09-07T04:42:36;19.20;99.90
53264;DHT22;39153;52.680;6.172;2023-09-07T04:45:05;19.20;99.90
53264;DHT22;39153;52.680;6.172;2023-09-07T04:47:31;19.10;99.90
53264;DHT22;39153;52.680;6.172;2023-09-07T04:49:57;19.10;99.90
53264;DHT22;39153;52.680;6.172;2023-09-07T04:52:23;19.00;99.90
53264;DHT22;39153;52.680;6.172;2023-09-07T04:54:48;19.00;99.90
53264;DHT22;39153;52.680;6.172;2023-09-07T04:57:17;18.90;99.90
53264;DHT22;39153;52.680;6.172;2023-09-07T04:59:45;18.90;99.90
53264;DHT22;39153;52.680;6.172;2023-09-07T05:02:11;18.90;99.90
53264;DHT22;39153;52.680;6.172;2023-09-07T05:04:38;18.90;99.90
53264;DHT22;39153;52.680;6.172;2023-09-07T05:07:03;18.80;99.90
53264;DHT22;39153;52.680;6.172;2023-09-07T05:09:29;18.80;99.90
53264;DHT22;39153;52.680;6.172;2023-09-07T05:11:55;18.80;99.90
53264;DHT22;39153;52.680;6.172;2023-09-07T05:14:25;18.80;99.90
53264;DHT22;39153;52.680;6.172;2023-09-07T05:16:51;18.80;99.90
53264;DHT22;39153;52.680;6.172;2023-09-07T05:19:16;18.80;99.90
53264;DHT22;39153;52.680;6.172;2023-09-07T05:21:42;18.80;99.90
53264;DHT22;39153;52.680;6.172;2023-09-07T05:24:08;18.70;99.90
53264;DHT22;39153;52.680;6.172;2023-09-07T05:26:33;18.70;99.90
53264;DHT22;39153;52.680;6.172;2023-09-07T05:29:00;18.70;99.90
53264;DHT22;39153;52.680;6.172;2023-09-07T05:31:26;18.70;99.90
53264;DHT22;39153;52.680;6.172;2023-09-07T05:33:52;18.70;99.90
53264;DHT22;39153;52.680;6.172;2023-09-07T05:36:18;18.70;99.90
53264;DHT22;39153;52.680;6.172;2023-09-07T05:38:44;18.70;99.90
53264;DHT22;39153;52.680;6.172;2023-09-07T05:41:09;18.70;99.90
53264;DHT22;39153;52.680;6.172;2023-09-07T05:43:35;18.70;99.90
53264;DHT22;39153;52.680;6.172;2023-09-07T05:46:01;18.70;99.90
53264;DHT22;39153;52.680;6.172;2023-09-07T05:48:28;18.70;99.90
53264;DHT22;39153;52.680;6.172;2023-09-07T05:50:54;18.70;99.90
53264;DHT22;39153;52.680;6.172;2023-09-07T05:53:19;18.70;99.90
53264;DHT22;39153;52.680;6.172;2023-09-07T05:55:50;18.80;99.90
53264;DHT22;39153;52.680;6.172;2023-09-07T05:58:15;18.80;99.90
53264;DHT22;39153;52.680;6.172;2023-09-07T06:00:41;18.80;99.90
53264;DHT22;39153;52.680;6.172;2023-09-07T06:03:08;18.80;99.90
53264;DHT22;39153;52.680;6.172;2023-09-07T06:05:35;18.80;99.90
53264;DHT22;39153;52.680;6.172;2023-09-07T06:08:02;18.90;99.90
53264;DHT22;39153;52.680;6.172;2023-09-07T06:10:30;18.90;99.90
53264;DHT22;39153;52.680;6.172;2023-09-07T06:12:56;19.00;99.90
53264;DHT22;39153;52.680;6.172;2023-09-07T06:15:22;19.00;99.90
53264;DHT22;39153;52.680;6.172;2023-09-07T06:17:48;19.10;99.90
53264;DHT22;39153;52.680;6.172;2023-09-07T06:20:15;19.10;99.90
53264;DHT22;39153;52.680;6.172;2023-09-07T06:22:41;19.10;99.90
53264;DHT22;39153;52.680;6.172;2023-09-07T06:25:07;19.20;99.90
53264;DHT22;39153;52.680;6.172;2023-09-07T06:27:33;19.20;99.90
53264;DHT22;39153;52.680;6.172;2023-09-07T06:29:58;19.20;99.90
53264;DHT22;39153;52.680;6.172;2023-09-07T06:32:24;19.20;99.90
53264;DHT22;39153;52.680;6.172;2023-09-07T06:34:50;19.30;99.90
53264;DHT22;39153;52.680;6.172;2023-09-07T06:37:16;19.30;99.90
53264;DHT22;39153;52.680;6.172;2023-09-07T06:39:42;19.30;99.90
53264;DHT22;39153;52.680;6.172;2023-09-07T06:42:10;19.40;99.90
53264;DHT22;39153;52.680;6.172;2023-09-07T06:44:36;19.40;99.90
53264;DHT22;39153;52.680;6.172;2023-09-07T06:47:02;19.40;99.90
53264;DHT22;39153;52.680;6.172;2023-09-07T06:49:28;19.40;99.90
53264;DHT22;39153;52.680;6.172;2023-09-07T06:51:57;19.50;99.90
53264;DHT22;39153;52.680;6.172;2023-09-07T06:54:23;19.50;99.90
53264;DHT22;39153;52.680;6.172;2023-09-07T06:56:49;19.50;99.90
53264;DHT22;39153;52.680;6.172;2023-09-07T06:59:15;19.60;99.90
53264;DHT22;39153;52.680;6.172;2023-09-07T07:01:41;19.60;99.90
53264;DHT22;39153;52.680;6.172;2023-09-07T07:04:06;19.60;99.90
53264;DHT22;39153;52.680;6.172;2023-09-07T07:06:33;19.70;99.90
53264;DHT22;39153;52.680;6.172;2023-09-07T07:08:59;19.80;99.90
53264;DHT22;39153;52.680;6.172;2023-09-07T07:11:25;19.80;99.90
53264;DHT22;39153;52.680;6.172;2023-09-07T07:13:50;19.80;99.90
53264;DHT22;39153;52.680;6.172;2023-09-07T07:16:17;19.90;99.90
53264;DHT22;39153;52.680;6.172;2023-09-07T07:18:42;19.90;99.90
53264;DHT22;39153;52.680;6.172;2023-09-07T07:21:08;20.00;99.90
53264;DHT22;39153;52.680;6.172;2023-09-07T07:23:35;20.10;99.90
53264;DHT22;39153;52.680;6.172;2023-09-07T07:26:00;20.10;99.90
53264;DHT22;39153;52.680;6.172;2023-09-07T07:28:26;20.20;99.90
53264;DHT22;39153;52.680;6.172;2023-09-07T07:30:52;20.20;99.90
53264;DHT22;39153;52.680;6.172;2023-09-07T07:33:19;20.20;99.90
53264;DHT22;39153;52.680;6.172;2023-09-07T07:35:45;20.30;99.90
53264;DHT22;39153;52.680;6.172;2023-09-07T07:38:12;20.30;99.90
53264;DHT22;39153;52.680;6.172;2023-09-07T07:40:39;20.40;99.90
53264;DHT22;39153;52.680;6.172;2023-09-07T07:43:05;20.50;99.90
53264;DHT22;39153;52.680;6.172;2023-09-07T07:45:32;20.50;99.90
53264;DHT22;39153;52.680;6.172;2023-09-07T07:48:02;20.60;99.90
53264;DHT22;39153;52.680;6.172;2023-09-07T07:50:31;20.60;99.90
53264;DHT22;39153;52.680;6.172;2023-09-07T07:52:57;20.70;99.90
53264;DHT22;39153;52.680;6.172;2023-09-07T07:55:23;20.70;99.90
53264;DHT22;39153;52.680;6.172;2023-09-07T07:57:48;20.80;99.90
53264;DHT22;39153;52.680;6.172;2023-09-07T08:00:14;20.90;99.90
53264;DHT22;39153;52.680;6.172;2023-09-07T08:02:40;20.90;99.90
53264;DHT22;39153;52.680;6.172;2023-09-07T08:05:06;20.90;99.90
53264;DHT22;39153;52.680;6.172;2023-09-07T08:07:32;21.00;99.90
53264;DHT22;39153;52.680;6.172;2023-09-07T08:09:57;21.10;99.90
53264;DHT22;39153;52.680;6.172;2023-09-07T08:12:23;21.20;99.90
53264;DHT22;39153;52.680;6.172;2023-09-07T08:14:49;21.20;99.90
53264;DHT22;39153;52.680;6.172;2023-09-07T08:17:15;21.30;99.90
53264;DHT22;39153;52.680;6.172;2023-09-07T08:19:40;21.30;99.90
53264;DHT22;39153;52.680;6.172;2023-09-07T08:22:06;21.40;99.90
53264;DHT22;39153;52.680;6.172;2023-09-07T08:24:32;21.50;99.90
53264;DHT22;39153;52.680;6.172;2023-09-07T08:26:58;21.50;99.90
53264;DHT22;39153;52.680;6.172;2023-09-07T08:29:26;21.60;99.90
53264;DHT22;39153;52.680;6.172;2023-09-07T08:31:53;21.70;99.90
53264;DHT22;39153;52.680;6.172;2023-09-07T08:34:19;21.70;99.90
53264;DHT22;39153;52.680;6.172;2023-09-07T08:36:46;21.80;99.90
53264;DHT22;39153;52.680;6.172;2023-09-07T08:39:13;21.90;99.90
53264;DHT22;39153;52.680;6.172;2023-09-07T08:41:40;22.00;99.90
53264;DHT22;39153;52.680;6.172;2023-09-07T08:44:18;22.10;99.90
53264;DHT22;39153;52.680;6.172;2023-09-07T08:46:50;22.20;99.90
53264;DHT22;39153;52.680;6.172;2023-09-07T08:49:17;22.30;99.90
53264;DHT22;39153;52.680;6.172;2023-09-07T08:51:46;22.40;99.90
53264;DHT22;39153;52.680;6.172;2023-09-07T08:54:12;22.40;99.90
53264;DHT22;39153;52.680;6.172;2023-09-07T08:56:38;22.50;99.90
53264;DHT22;39153;52.680;6.172;2023-09-07T08:59:04;22.50;99.90
53264;DHT22;39153;52.680;6.172;2023-09-07T09:01:30;22.70;99.90
53264;DHT22;39153;52.680;6.172;2023-09-07T09:04:00;22.70;99.90
53264;DHT22;39153;52.680;6.172;2023-09-07T09:06:25;22.80;99.90
53264;DHT22;39153;52.680;6.172;2023-09-07T09:08:54;23.00;99.90
53264;DHT22;39153;52.680;6.172;2023-09-07T09:11:20;23.20;99.90
53264;DHT22;39153;52.680;6.172;2023-09-07T09:13:47;23.30;99.90
53264;DHT22;39153;52.680;6.172;2023-09-07T09:16:14;23.40;99.90
53264;DHT22;39153;52.680;6.172;2023-09-07T09:18:57;23.60;99.90
53264;DHT22;39153;52.680;6.172;2023-09-07T09:21:26;23.80;99.90
53264;DHT22;39153;52.680;6.172;2023-09-07T09:23:54;23.90;99.90
53264;DHT22;39153;52.680;6.172;2023-09-07T09:26:20;24.10;99.90
53264;DHT22;39153;52.680;6.172;2023-09-07T09:28:47;24.20;99.90
53264;DHT22;39153;52.680;6.172;2023-09-07T09:31:14;24.30;99.90
53264;DHT22;39153;52.680;6.172;2023-09-07T09:33:48;24.40;99.90
53264;DHT22;39153;52.680;6.172;2023-09-07T09:36:14;24.60;99.90
53264;DHT22;39153;52.680;6.172;2023-09-07T09:38:39;24.60;99.90
53264;DHT22;39153;52.680;6.172;2023-09-07T09:41:06;24.70;99.90
53264;DHT22;39153;52.680;6.172;2023-09-07T09:43:34;24.80;99.90
53264;DHT22;39153;52.680;6.172;2023-09-07T09:46:00;24.90;99.90
53264;DHT22;39153;52.680;6.172;2023-09-07T09:48:27;25.00;99.90
53264;DHT22;39153;52.680;6.172;2023-09-07T09:50:53;25.10;99.90
53264;DHT22;39153;52.680;6.172;2023-09-07T09:53:19;25.10;99.90
53264;DHT22;39153;52.680;6.172;2023-09-07T09:55:50;25.20;99.90
53264;DHT22;39153;52.680;6.172;2023-09-07T09:58:18;25.20;99.90
53264;DHT22;39153;52.680;6.172;2023-09-07T10:00:49;25.30;99.90
53264;DHT22;39153;52.680;6.172;2023-09-07T10:05:49;25.50;99.90
53264;DHT22;39153;52.680;6.172;2023-09-07T10:08:17;25.50;99.90
53264;DHT22;39153;52.680;6.172;2023-09-07T10:10:44;25.60;99.90
53264;DHT22;39153;52.680;6.172;2023-09-07T10:13:14;25.70;99.90
53264;DHT22;39153;52.680;6.172;2023-09-07T10:15:40;25.80;99.90
53264;DHT22;39153;52.680;6.172;2023-09-07T10:23:18;25.90;99.90
53264;DHT22;39153;52.680;6.172;2023-09-07T10:25:50;26.00;99.90
53264;DHT22;39153;52.680;6.172;2023-09-07T10:28:23;26.10;99.90
53264;DHT22;39153;52.680;6.172;2023-09-07T10:31:06;26.20;99.90
53264;DHT22;39153;52.680;6.172;2023-09-07T10:33:35;26.30;99.90
53264;DHT22;39153;52.680;6.172;2023-09-07T10:36:03;26.50;99.90
53264;DHT22;39153;52.680;6.172;2023-09-07T10:38:34;26.50;99.90
53264;DHT22;39153;52.680;6.172;2023-09-07T10:41:02;26.50;99.90
53264;DHT22;39153;52.680;6.172;2023-09-07T10:43:33;26.60;99.90
53264;DHT22;39153;52.680;6.172;2023-09-07T10:46:00;26.70;99.90
53264;DHT22;39153;52.680;6.172;2023-09-07T10:48:29;26.80;99.90
53264;DHT22;39153;52.680;6.172;2023-09-07T10:50:55;26.80;99.90
53264;DHT22;39153;52.680;6.172;2023-09-07T10:53:32;27.00;99.90
53264;DHT22;39153;52.680;6.172;2023-09-07T10:56:05;27.10;99.90
53264;DHT22;39153;52.680;6.172;2023-09-07T10:58:36;27.20;99.90
53264;DHT22;39153;52.680;6.172;2023-09-07T11:01:06;27.40;99.90
53264;DHT22;39153;52.680;6.172;2023-09-07T11:03:32;27.50;99.90
53264;DHT22;39153;52.680;6.172;2023-09-07T11:06:01;27.50;99.90
53264;DHT22;39153;52.680;6.172;2023-09-07T11:08:29;27.60;99.90
53264;DHT22;39153;52.680;6.172;2023-09-07T11:10:55;27.80;99.90
53264;DHT22;39153;52.680;6.172;2023-09-07T11:13:24;27.90;99.90
53264;DHT22;39153;52.680;6.172;2023-09-07T11:15:54;28.10;99.90
53264;DHT22;39153;52.680;6.172;2023-09-07T11:18:20;28.20;99.90
53264;DHT22;39153;52.680;6.172;2023-09-07T11:20:50;28.40;99.90
53264;DHT22;39153;52.680;6.172;2023-09-07T11:23:20;28.50;99.90
53264;DHT22;39153;52.680;6.172;2023-09-07T11:25:50;28.60;99.90
53264;DHT22;39153;52.680;6.172;2023-09-07T11:28:17;28.70;99.90
53264;DHT22;39153;52.680;6.172;2023-09-07T11:30:55;28.70;99.90
53264;DHT22;39153;52.680;6.172;2023-09-07T11:33:21;28.90;99.90
53264;DHT22;39153;52.680;6.172;2023-09-07T11:35:47;28.90;99.90
53264;DHT22;39153;52.680;6.172;2023-09-07T11:38:15;29.10;99.90
53264;DHT22;39153;52.680;6.172;2023-09-07T11:40:42;29.20;99.90
53264;DHT22;39153;52.680;6.172;2023-09-07T11:43:11;29.30;99.90
53264;DHT22;39153;52.680;6.172;2023-09-07T11:45:38;29.40;99.90
53264;DHT22;39153;52.680;6.172;2023-09-07T11:48:05;29.50;99.90
53264;DHT22;39153;52.680;6.172;2023-09-07T11:50:31;29.70;99.90
53264;DHT22;39153;52.680;6.172;2023-09-07T11:52:56;29.80;99.80
53264;DHT22;39153;52.680;6.172;2023-09-07T11:55:22;29.90;99.70
53264;DHT22;39153;52.680;6.172;2023-09-07T11:57:48;30.00;99.40
53264;DHT22;39153;52.680;6.172;2023-09-07T12:00:14;30.10;99.00
53264;DHT22;39153;52.680;6.172;2023-09-07T12:02:40;30.20;98.70
53264;DHT22;39153;52.680;6.172;2023-09-07T12:05:07;30.30;98.40
53264;DHT22;39153;52.680;6.172;2023-09-07T12:07:35;30.40;98.30
53264;DHT22;39153;52.680;6.172;2023-09-07T12:10:01;30.50;97.80
53264;DHT22;39153;52.680;6.172;2023-09-07T12:12:27;30.50;98.00
53264;DHT22;39153;52.680;6.172;2023-09-07T12:14:52;30.60;98.30
53264;DHT22;39153;52.680;6.172;2023-09-07T12:17:19;30.70;97.90
53264;DHT22;39153;52.680;6.172;2023-09-07T12:19:45;30.90;97.50
53264;DHT22;39153;52.680;6.172;2023-09-07T12:22:12;31.00;97.00
53264;DHT22;39153;52.680;6.172;2023-09-07T12:24:38;31.10;96.70
53264;DHT22;39153;52.680;6.172;2023-09-07T12:27:03;31.20;96.30
53264;DHT22;39153;52.680;6.172;2023-09-07T12:29:29;31.30;95.70
53264;DHT22;39153;52.680;6.172;2023-09-07T12:31:55;31.40;95.60
53264;DHT22;39153;52.680;6.172;2023-09-07T12:34:21;31.50;95.30
53264;DHT22;39153;52.680;6.172;2023-09-07T12:36:47;31.50;95.30
53264;DHT22;39153;52.680;6.172;2023-09-07T12:39:13;31.60;95.30
53264;DHT22;39153;52.680;6.172;2023-09-07T12:41:39;31.60;95.10
53264;DHT22;39153;52.680;6.172;2023-09-07T12:44:05;31.80;95.40
53264;DHT22;39153;52.680;6.172;2023-09-07T12:46:32;31.90;94.60
53264;DHT22;39153;52.680;6.172;2023-09-07T12:48:57;32.00;94.20
53264;DHT22;39153;52.680;6.172;2023-09-07T12:51:23;32.10;94.20
53264;DHT22;39153;52.680;6.172;2023-09-07T12:53:49;32.10;94.50
53264;DHT22;39153;52.680;6.172;2023-09-07T12:56:15;32.30;94.50
53264;DHT22;39153;52.680;6.172;2023-09-07T12:58:41;32.40;94.70
53264;DHT22;39153;52.680;6.172;2023-09-07T13:01:08;32.50;93.90
53264;DHT22;39153;52.680;6.172;2023-09-07T13:03:38;32.60;93.50
53264;DHT22;39153;52.680;6.172;2023-09-07T13:06:04;32.50;93.20
53264;DHT22;39153;52.680;6.172;2023-09-07T13:08:30;32.60;93.10
53264;DHT22;39153;52.680;6.172;2023-09-07T13:10:56;32.60;92.90
53264;DHT22;39153;52.680;6.172;2023-09-07T13:13:24;32.70;93.00
53264;DHT22;39153;52.680;6.172;2023-09-07T13:15:57;32.80;93.00
53264;DHT22;39153;52.680;6.172;2023-09-07T13:18:22;32.80;93.10
53264;DHT22;39153;52.680;6.172;2023-09-07T13:20:48;32.90;92.80
53264;DHT22;39153;52.680;6.172;2023-09-07T13:23:16;33.00;92.90
53264;DHT22;39153;52.680;6.172;2023-09-07T13:25:42;33.10;92.80
53264;DHT22;39153;52.680;6.172;2023-09-07T13:28:07;33.20;92.70
53264;DHT22;39153;52.680;6.172;2023-09-07T13:30:33;33.30;92.60
53264;DHT22;39153;52.680;6.172;2023-09-07T13:32:59;33.40;92.50
53264;DHT22;39153;52.680;6.172;2023-09-07T13:35:25;33.40;92.30
53264;DHT22;39153;52.680;6.172;2023-09-07T13:37:51;33.40;92.30
53264;DHT22;39153;52.680;6.172;2023-09-07T13:40:18;33.40;92.30
53264;DHT22;39153;52.680;6.172;2023-09-07T13:42:47;33.60;92.20
53264;DHT22;39153;52.680;6.172;2023-09-07T13:45:13;33.60;92.30
53264;DHT22;39153;52.680;6.172;2023-09-07T13:47:39;33.70;92.30
53264;DHT22;39153;52.680;6.172;2023-09-07T13:50:05;33.80;92.30
53264;DHT22;39153;52.680;6.172;2023-09-07T13:52:31;33.80;92.50
53264;DHT22;39153;52.680;6.172;2023-09-07T13:54:57;34.10;92.60
53264;DHT22;39153;52.680;6.172;2023-09-07T13:57:23;34.10;92.20
53264;DHT22;39153;52.680;6.172;2023-09-07T13:59:49;34.20;92.30
53264;DHT22;39153;52.680;6.172;2023-09-07T14:02:15;34.30;92.20
53264;DHT22;39153;52.680;6.172;2023-09-07T14:04:40;34.30;92.00
53264;DHT22;39153;52.680;6.172;2023-09-07T14:07:06;34.50;91.80
53264;DHT22;39153;52.680;6.172;2023-09-07T14:09:32;34.50;91.60
53264;DHT22;39153;52.680;6.172;2023-09-07T14:11:59;34.50;91.60
53264;DHT22;39153;52.680;6.172;2023-09-07T14:14:25;34.60;91.50
53264;DHT22;39153;52.680;6.172;2023-09-07T14:16:51;34.70;91.70
53264;DHT22;39153;52.680;6.172;2023-09-07T14:19:20;34.80;91.50
53264;DHT22;39153;52.680;6.172;2023-09-07T14:21:46;34.90;91.40
53264;DHT22;39153;52.680;6.172;2023-09-07T14:24:12;35.00;91.00
53264;DHT22;39153;52.680;6.172;2023-09-07T14:26:37;34.90;90.60
53264;DHT22;39153;52.680;6.172;2023-09-07T14:29:03;34.80;90.80
53264;DHT22;39153;52.680;6.172;2023-09-07T14:31:30;34.80;91.00
53264;DHT22;39153;52.680;6.172;2023-09-07T14:33:56;34.90;90.80
53264;DHT22;39153;52.680;6.172;2023-09-07T14:36:21;35.00;90.50
53264;DHT22;39153;52.680;6.172;2023-09-07T14:38:47;35.00;90.50
53264;DHT22;39153;52.680;6.172;2023-09-07T14:41:13;34.90;90.30
53264;DHT22;39153;52.680;6.172;2023-09-07T14:43:45;35.00;90.20
53264;DHT22;39153;52.680;6.172;2023-09-07T14:46:12;35.00;90.20
53264;DHT22;39153;52.680;6.172;2023-09-07T14:48:37;35.00;90.20
53264;DHT22;39153;52.680;6.172;2023-09-07T14:51:03;35.10;90.30
53264;DHT22;39153;52.680;6.172;2023-09-07T14:53:29;35.30;90.20
53264;DHT22;39153;52.680;6.172;2023-09-07T14:55:56;35.40;90.30
53264;DHT22;39153;52.680;6.172;2023-09-07T14:58:21;35.40;90.30
53264;DHT22;39153;52.680;6.172;2023-09-07T15:00:47;35.60;90.40
53264;DHT22;39153;52.680;6.172;2023-09-07T15:03:13;35.60;90.20
53264;DHT22;39153;52.680;6.172;2023-09-07T15:05:38;35.60;89.10
53264;DHT22;39153;52.680;6.172;2023-09-07T15:08:04;35.70;88.80
53264;DHT22;39153;52.680;6.172;2023-09-07T15:10:32;35.60;88.50
53264;DHT22;39153;52.680;6.172;2023-09-07T15:13:00;35.60;88.20
53264;DHT22;39153;52.680;6.172;2023-09-07T15:15:31;35.70;88.30
53264;DHT22;39153;52.680;6.172;2023-09-07T15:18:03;35.70;87.80
53264;DHT22;39153;52.680;6.172;2023-09-07T15:20:29;35.60;88.00
53264;DHT22;39153;52.680;6.172;2023-09-07T15:22:56;35.70;88.20
53264;DHT22;39153;52.680;6.172;2023-09-07T15:25:21;35.90;88.40
53264;DHT22;39153;52.680;6.172;2023-09-07T15:27:47;36.00;88.40
53264;DHT22;39153;52.680;6.172;2023-09-07T15:30:14;36.20;88.60
53264;DHT22;39153;52.680;6.172;2023-09-07T15:32:40;36.40;88.40
53264;DHT22;39153;52.680;6.172;2023-09-07T15:35:09;36.40;88.20